General Aviation Weather

Text Reports

Enter one or more of the following location identifiers separated by a space:

Zip Code, Four-Character ICAO or Three-Character IATA airport codes.

METAR - Aviation Routine Weather Report
KHWD - Hayward, California
Updated at 3:54 AM GMT on September 02, 2014 (8:54 PM PDT):
METAR KHWD 020354Z 30007KT 10SM CLR 21/16 A2978 RMK AO2 SLP093 T02110156
TAF - Terminal Area Forecast
KHWD - Hayward, California
Updated at 3:54 AM GMT on September 02, 2014 (8:54 PM PDT):
No TAF is currently available for this location.
Decoded:
No decoded TAF is available.
PIREP - Pilot Weather Report
KHWD - Hayward, California
Updated at 3:54 AM GMT on September 02, 2014 (8:54 PM PDT):
No PIREP is currently available for this location.
AIRMET - Airmens Meteorological Information
KHWD - Hayward, California
Updated at 3:54 AM GMT on September 02, 2014 (8:54 PM PDT):
No AIRMET is currently available for this location.
SIGMET - Significant Meteorological Information
KHWD - Hayward, California
Updated at 3:54 AM GMT on September 02, 2014 (8:54 PM PDT):
No SIGMET is currently available for this location.
NOTAM - Notice to Airmen
KHWD - Hayward, California
Updated at 3:54 AM GMT on September 02, 2014 (8:54 PM PDT):
No NOTAM is currently available for this location.
Forecast Area
KHWD - Hayward, California
Updated at 3:54 AM GMT on September 02, 2014 (8:54 PM PDT):
No NOTAM is currently available for this location.
Aviation Weather Maps